createdAt,value
2023-02-28T00:03:53.603Z,79.64
2023-02-28T00:04:53.582Z,80.90
2023-02-28T00:05:53.584Z,81.00
2023-02-28T00:06:53.560Z,81.11
2023-02-28T00:07:53.563Z,81.21
2023-02-28T00:08:53.572Z,81.32
2023-02-28T00:09:53.535Z,81.95
2023-02-28T00:10:53.538Z,81.32
2023-02-28T00:11:53.518Z,81.32
2023-02-28T00:13:06.763Z,81.95
2023-02-28T00:13:53.491Z,81.52
2023-02-28T00:14:53.492Z,81.63
2023-02-28T00:15:53.471Z,81.73
2023-02-28T00:16:53.498Z,81.63
2023-02-28T00:17:53.820Z,81.63
2023-02-28T00:18:53.460Z,81.63
2023-02-28T00:19:53.434Z,81.52
2023-02-28T00:20:53.416Z,81.63
2023-02-28T00:21:53.416Z,81.73
2023-02-28T00:22:53.423Z,81.32
2023-02-28T00:23:53.397Z,81.63
2023-02-28T00:24:53.383Z,81.42
2023-02-28T00:27:26.265Z,81.63
2023-02-28T00:28:26.307Z,81.59
2023-02-28T00:29:26.266Z,81.52
2023-02-28T00:30:26.281Z,81.52
2023-02-28T00:31:26.600Z,81.32
2023-02-28T00:32:26.218Z,81.52
2023-02-28T00:33:26.261Z,81.32
2023-02-28T00:34:26.258Z,81.42
2023-02-28T00:35:26.222Z,81.42
2023-02-28T00:36:26.203Z,81.49
2023-02-28T00:37:26.170Z,81.70
2023-02-28T00:38:26.175Z,81.63
2023-02-28T00:39:26.145Z,81.38
2023-02-28T00:40:26.150Z,81.80
2023-02-28T00:41:26.348Z,81.59
2023-02-28T00:42:26.142Z,81.84
2023-02-28T00:43:26.126Z,81.70
2023-02-28T00:44:26.104Z,81.95
2023-02-28T00:45:26.081Z,81.80
2023-02-28T00:46:26.109Z,80.79
2023-02-28T00:47:26.076Z,81.07
2023-02-28T00:48:26.081Z,81.00
2023-02-28T00:49:26.040Z,81.11
2023-02-28T00:50:26.038Z,81.21
2023-02-28T00:51:26.085Z,81.11
2023-02-28T00:52:26.015Z,81.21
2023-02-28T00:53:26.024Z,81.32
2023-02-28T00:54:26.003Z,81.00
2023-02-28T00:55:25.976Z,80.79
2023-02-28T00:56:25.968Z,81.11
2023-02-28T00:57:25.955Z,81.11
2023-02-28T00:58:25.978Z,81.00
2023-02-28T00:59:25.971Z,81.11
2023-02-28T01:00:25.933Z,81.21
2023-02-28T01:01:25.975Z,81.04
2023-02-28T01:02:25.915Z,81.11
2023-02-28T01:03:25.909Z,80.69
2023-02-28T01:04:25.937Z,81.67
2023-02-28T01:05:25.882Z,81.63
2023-02-28T01:06:25.886Z,81.67
2023-02-28T01:07:25.862Z,81.73
2023-02-28T01:08:25.869Z,80.73
2023-02-28T01:09:25.837Z,81.56
2023-02-28T01:10:25.830Z,80.27
2023-02-28T01:11:25.871Z,81.67
2023-02-28T01:12:25.813Z,81.67
2023-02-28T01:13:25.854Z,81.77
2023-02-28T01:14:25.789Z,81.77
2023-02-28T01:15:25.850Z,81.56
2023-02-28T01:16:25.771Z,81.67
2023-02-28T01:17:25.755Z,82.29
2023-02-28T01:18:25.759Z,82.19
2023-02-28T01:19:25.762Z,82.19
2023-02-28T01:20:25.720Z,82.23
2023-02-28T01:21:25.711Z,82.40
2023-02-28T01:22:25.737Z,82.09
2023-02-28T01:23:25.734Z,82.29
2023-02-28T01:24:25.691Z,82.12
2023-02-28T01:25:25.699Z,82.09
2023-02-28T01:26:25.671Z,82.12
2023-02-28T01:27:25.658Z,82.19
2023-02-28T01:28:25.650Z,82.09
2023-02-28T01:29:25.624Z,82.43
2023-02-28T01:30:25.620Z,82.33
2023-02-28T01:31:25.631Z,82.65
2023-02-28T01:32:25.611Z,82.96
2023-02-28T01:33:25.603Z,82.75
2023-02-28T01:34:25.580Z,82.75
2023-02-28T01:35:25.573Z,82.75
2023-02-28T01:36:25.568Z,82.86
2023-02-28T01:37:25.544Z,82.75
2023-02-28T01:38:25.534Z,82.54
2023-02-28T01:39:25.543Z,82.43
2023-02-28T01:40:25.515Z,82.23
2023-02-28T01:41:25.543Z,82.43
2023-02-28T01:42:25.481Z,82.33
2023-02-28T01:43:25.479Z,82.40
2023-02-28T01:44:25.496Z,82.54
2023-02-28T01:45:25.466Z,82.43
2023-02-28T01:46:25.495Z,82.33
2023-02-28T01:47:25.430Z,82.23
2023-02-28T01:48:25.429Z,82.43
2023-02-28T01:49:25.430Z,82.23
2023-02-28T01:50:25.399Z,82.23
2023-02-28T01:51:25.387Z,82.23
2023-02-28T01:52:25.391Z,82.33
2023-02-28T01:53:25.378Z,82.23
2023-02-28T01:54:25.405Z,82.02
2023-02-28T01:55:25.354Z,81.98
2023-02-28T01:56:25.350Z,82.12
2023-02-28T01:57:25.342Z,81.70
2023-02-28T01:58:25.346Z,81.92
2023-02-28T01:59:25.325Z,81.39
2023-02-28T02:00:25.309Z,81.70
2023-02-28T02:01:27.126Z,81.60
2023-02-28T02:05:22.472Z,81.70
2023-02-28T02:05:44.469Z,81.49
2023-02-28T02:06:44.474Z,81.39
2023-02-28T02:07:44.463Z,81.60
2023-02-28T02:08:44.453Z,81.56
2023-02-28T02:09:44.520Z,81.25
2023-02-28T02:10:44.433Z,81.49
2023-02-28T02:11:44.412Z,81.60
2023-02-28T02:12:44.410Z,81.77
2023-02-28T02:13:44.390Z,81.87
2023-02-28T02:14:44.393Z,81.18
2023-02-28T02:15:44.390Z,80.83
2023-02-28T02:16:44.362Z,82.02
2023-02-28T02:17:44.353Z,80.93
2023-02-28T02:18:44.341Z,81.77
2023-02-28T02:19:44.354Z,81.87
2023-02-28T02:20:44.317Z,81.15
2023-02-28T02:21:44.306Z,81.35
2023-02-28T02:22:44.305Z,81.35
2023-02-28T02:23:44.302Z,81.04
2023-02-28T02:24:44.297Z,80.83
2023-02-28T02:25:44.278Z,80.62
2023-02-28T02:26:44.259Z,80.31
2023-02-28T02:27:44.256Z,80.52
2023-02-28T02:28:44.233Z,80.97
2023-02-28T02:29:44.244Z,81.25
2023-02-28T02:30:44.214Z,80.87
2023-02-28T02:31:44.269Z,80.93
2023-02-28T02:32:44.200Z,81.35
2023-02-28T02:33:44.193Z,81.15
2023-02-28T02:34:44.187Z,81.25
2023-02-28T02:35:44.213Z,81.29
2023-02-28T02:36:44.155Z,81.25
2023-02-28T02:37:44.138Z,81.04
2023-02-28T02:38:44.150Z,81.25
2023-02-28T02:39:44.132Z,81.46
2023-02-28T02:40:44.116Z,80.73
2023-02-28T02:41:44.092Z,81.35
2023-02-28T02:42:44.089Z,81.25
2023-02-28T02:43:44.084Z,80.83
2023-02-28T02:44:44.082Z,80.10
2023-02-28T02:45:44.085Z,80.83
2023-02-28T02:46:44.151Z,80.83
2023-02-28T02:47:44.026Z,80.41
2023-02-28T02:48:44.020Z,80.20
2023-02-28T02:49:44.020Z,80.90
2023-02-28T02:50:44.004Z,81.46
2023-02-28T02:51:43.990Z,81.25
2023-02-28T02:52:43.982Z,81.87
2023-02-28T02:53:43.974Z,81.25
2023-02-28T02:54:43.981Z,81.35
2023-02-28T02:55:43.940Z,80.83
2023-02-28T02:56:43.942Z,80.31
2023-02-28T02:57:43.933Z,79.96
2023-02-28T02:58:43.941Z,80.20
2023-02-28T02:59:43.920Z,80.10
2023-02-28T03:00:43.909Z,79.47
2023-02-28T03:01:43.875Z,79.68
2023-02-28T03:02:43.871Z,79.36
2023-02-28T03:03:43.921Z,80.10
2023-02-28T03:04:43.860Z,79.36
2023-02-28T03:05:43.840Z,79.22
2023-02-28T03:06:43.826Z,80.16
2023-02-28T03:07:43.821Z,79.36
2023-02-28T03:08:43.808Z,79.54
2023-02-28T03:09:43.815Z,79.22
2023-02-28T03:10:43.791Z,79.79
2023-02-28T03:11:43.775Z,79.44
2023-02-28T03:12:43.774Z,79.44
2023-02-28T03:13:43.786Z,79.54
2023-02-28T03:14:43.740Z,79.75
2023-02-28T03:15:43.736Z,79.26
2023-02-28T03:16:43.722Z,79.54
2023-02-28T03:17:43.706Z,79.26
2023-02-28T03:18:43.706Z,79.64
2023-02-28T03:19:43.685Z,79.44
2023-02-28T03:20:43.696Z,79.96
2023-02-28T03:21:43.662Z,79.16
2023-02-28T03:22:43.659Z,79.75
2023-02-28T03:23:43.662Z,79.85
2023-02-28T03:24:43.646Z,79.54
2023-02-28T03:25:43.638Z,79.26
2023-02-28T03:26:43.676Z,79.89
2023-02-28T03:27:43.630Z,79.96
2023-02-28T03:28:43.609Z,79.64
2023-02-28T03:29:43.592Z,79.36
2023-02-28T03:30:43.625Z,79.36
2023-02-28T03:31:43.613Z,79.64
2023-02-28T03:32:43.586Z,79.58
2023-02-28T03:33:43.556Z,79.36
2023-02-28T03:34:43.545Z,79.16
2023-02-28T03:35:43.548Z,79.22
2023-02-28T03:36:43.534Z,79.79
2023-02-28T03:37:43.509Z,78.91
2023-02-28T03:38:43.507Z,79.33
2023-02-28T03:39:43.506Z,79.58
2023-02-28T03:40:43.490Z,79.12
2023-02-28T03:41:43.469Z,79.64
2023-02-28T03:42:43.462Z,79.12
2023-02-28T03:43:43.455Z,79.47
2023-02-28T03:44:43.443Z,78.70
2023-02-28T03:45:43.478Z,78.95
2023-02-28T03:46:43.427Z,78.74
2023-02-28T03:47:43.400Z,79.54
2023-02-28T03:48:43.395Z,78.95
2023-02-28T03:49:43.391Z,79.02
2023-02-28T03:50:43.390Z,78.60
2023-02-28T03:51:43.401Z,78.49
2023-02-28T03:52:43.354Z,78.42
2023-02-28T03:53:44.534Z,78.49
2023-02-28T03:54:44.524Z,78.49
2023-02-28T03:55:44.521Z,78.39
2023-02-28T03:56:44.502Z,78.39
2023-02-28T03:57:44.529Z,78.39
2023-02-28T03:58:44.512Z,78.32
2023-02-28T03:59:44.460Z,77.97
2023-02-28T04:00:44.471Z,77.97
2023-02-28T04:01:44.447Z,78.39
2023-02-28T04:02:44.403Z,78.11
2023-02-28T04:03:44.415Z,78.60
2023-02-28T04:04:44.429Z,78.42
2023-02-28T04:05:44.424Z,78.53
2023-02-28T04:06:44.380Z,78.01
2023-02-28T04:07:44.396Z,78.18
2023-02-28T04:08:44.370Z,78.39
2023-02-28T04:09:44.366Z,78.60
2023-02-28T04:10:44.382Z,77.97
2023-02-28T04:11:44.379Z,77.76
2023-02-28T04:12:44.344Z,77.38
2023-02-28T04:13:46.137Z,77.59
2023-02-28T04:14:44.336Z,77.45
2023-02-28T04:15:44.366Z,77.66
2023-02-28T04:16:44.392Z,77.03
2023-02-28T04:17:44.272Z,77.24
2023-02-28T04:18:44.295Z,77.24
2023-02-28T04:19:44.263Z,77.06
2023-02-28T04:20:44.269Z,76.72
2023-02-28T04:21:44.238Z,77.14
2023-02-28T04:22:44.230Z,77.14
2023-02-28T04:23:44.231Z,77.14
2023-02-28T04:24:44.193Z,76.82
2023-02-28T04:25:44.263Z,77.03
2023-02-28T04:26:44.204Z,77.55
2023-02-28T04:27:44.254Z,77.66
2023-02-28T04:28:44.190Z,77.55
2023-02-28T04:29:44.157Z,77.76
2023-02-28T04:30:44.191Z,77.45
2023-02-28T04:31:44.170Z,77.66
2023-02-28T04:32:44.200Z,77.66
2023-02-28T04:33:44.113Z,77.24
2023-02-28T04:34:44.104Z,77.59
2023-02-28T04:35:44.161Z,77.76
2023-02-28T04:36:44.084Z,77.55
2023-02-28T04:37:44.082Z,77.48
2023-02-28T04:38:44.077Z,77.45
2023-02-28T04:39:44.107Z,77.87
2023-02-28T04:40:44.091Z,77.90
2023-02-28T04:41:44.034Z,77.55
2023-02-28T04:42:44.039Z,77.45
2023-02-28T04:43:44.015Z,77.06
2023-02-28T04:44:44.035Z,77.48
2023-02-28T04:45:44.098Z,76.96
2023-02-28T04:46:44.005Z,76.75
2023-02-28T04:47:43.987Z,76.86
2023-02-28T04:48:43.982Z,76.96
2023-02-28T04:49:43.958Z,76.44
2023-02-28T04:50:44.009Z,76.12
2023-02-28T04:51:43.944Z,76.33
2023-02-28T04:52:43.930Z,76.02
2023-02-28T04:53:43.936Z,75.81
2023-02-28T04:54:43.924Z,76.20
2023-02-28T04:55:43.899Z,75.71
2023-02-28T04:56:43.917Z,76.02
2023-02-28T04:57:43.907Z,75.71
2023-02-28T04:58:43.892Z,75.49
2023-02-28T04:59:43.861Z,74.98
2023-02-28T05:00:43.852Z,75.08
2023-02-28T05:01:43.859Z,75.18
2023-02-28T05:02:43.813Z,75.39
2023-02-28T05:03:43.816Z,74.84
2023-02-28T05:04:43.858Z,75.08
2023-02-28T05:05:43.828Z,74.98
2023-02-28T05:06:43.863Z,75.18
2023-02-28T05:07:43.817Z,74.98
2023-02-28T05:08:43.814Z,74.98
2023-02-28T05:09:43.802Z,75.08
2023-02-28T05:10:43.797Z,74.63
2023-02-28T05:11:43.746Z,74.87
2023-02-28T05:12:43.740Z,74.76
2023-02-28T05:13:43.718Z,74.84
2023-02-28T05:14:43.728Z,74.24
2023-02-28T05:15:43.728Z,74.35
2023-02-28T05:16:43.730Z,74.66
2023-02-28T05:17:43.701Z,74.35
2023-02-28T05:18:43.767Z,73.72
2023-02-28T05:19:43.683Z,73.93
2023-02-28T05:20:43.671Z,73.65
2023-02-28T05:21:43.644Z,73.93
2023-02-28T05:22:43.642Z,73.72
2023-02-28T05:23:43.639Z,73.72
2023-02-28T05:24:43.665Z,73.30
2023-02-28T05:25:43.609Z,73.93
2023-02-28T05:26:43.677Z,73.51
2023-02-28T05:27:43.600Z,73.82
2023-02-28T05:28:43.580Z,73.41
2023-02-28T05:29:43.558Z,73.72
2023-02-28T05:30:43.554Z,73.30
2023-02-28T05:31:43.749Z,73.41
2023-02-28T05:32:43.535Z,73.72
2023-02-28T05:33:43.548Z,73.51
2023-02-28T05:34:43.534Z,73.61
2023-02-28T05:35:43.619Z,73.51
2023-02-28T05:36:43.524Z,73.51
2023-02-28T05:37:43.463Z,73.72
2023-02-28T05:38:43.513Z,72.99
2023-02-28T05:39:43.461Z,72.47
2023-02-28T05:40:43.490Z,72.99
2023-02-28T05:41:43.517Z,72.88
2023-02-28T05:42:43.430Z,73.41
2023-02-28T05:43:43.447Z,72.36
2023-02-28T05:44:43.421Z,72.88
2023-02-28T05:45:43.560Z,72.67
2023-02-28T05:46:43.407Z,72.36
2023-02-28T05:47:43.449Z,72.47
2023-02-28T05:48:43.463Z,71.94
2023-02-28T05:49:43.377Z,72.75
2023-02-28T05:50:43.395Z,72.36
2023-02-28T05:51:43.410Z,72.15
2023-02-28T05:52:43.361Z,72.36
2023-02-28T05:53:43.318Z,72.33
2023-02-28T05:54:43.354Z,72.67
2023-02-28T05:55:43.311Z,72.15
2023-02-28T05:56:43.337Z,72.22
2023-02-28T05:57:43.313Z,71.84
2023-02-28T05:58:43.305Z,71.62
2023-02-28T05:59:43.261Z,71.80
2023-02-28T06:00:43.256Z,71.31
2023-02-28T06:01:43.307Z,72.05
2023-02-28T06:02:43.250Z,71.49
2023-02-28T06:03:43.345Z,71.52
2023-02-28T06:04:43.194Z,70.79
2023-02-28T06:05:43.256Z,71.11
2023-02-28T06:06:43.246Z,71.00
2023-02-28T06:07:43.234Z,71.39
2023-02-28T06:08:43.183Z,71.31
2023-02-28T06:09:43.199Z,71.11
2023-02-28T06:10:43.181Z,71.11
2023-02-28T06:11:43.179Z,71.08
2023-02-28T06:12:43.190Z,71.62
2023-02-28T06:13:43.105Z,70.97
2023-02-28T06:14:43.124Z,71.11
2023-02-28T06:15:43.148Z,70.27
2023-02-28T06:16:43.135Z,70.58
2023-02-28T06:17:43.109Z,71.21
2023-02-28T06:18:43.094Z,71.21
2023-02-28T06:19:43.128Z,71.00
2023-02-28T06:20:43.047Z,71.11
2023-02-28T06:21:43.059Z,71.42
2023-02-28T06:22:43.077Z,70.90
2023-02-28T06:23:43.102Z,70.27
2023-02-28T06:24:43.092Z,69.85
2023-02-28T06:25:43.056Z,69.85
2023-02-28T06:26:43.040Z,70.58
2023-02-28T06:27:43.005Z,69.74
2023-02-28T06:28:42.984Z,70.17
2023-02-28T06:29:42.985Z,69.95
2023-02-28T06:30:44.473Z,70.06
2023-02-28T06:31:43.012Z,69.43
2023-02-28T06:32:42.992Z,69.12
2023-02-28T06:33:42.909Z,69.74
2023-02-28T06:34:42.901Z,69.82
2023-02-28T06:35:42.955Z,68.98
2023-02-28T06:36:42.859Z,69.61
2023-02-28T06:37:42.924Z,69.61
2023-02-28T06:38:42.897Z,69.71
2023-02-28T06:39:42.917Z,69.40
2023-02-28T06:40:42.872Z,69.51
2023-02-28T06:41:54.647Z,69.16
2023-02-28T06:42:44.859Z,69.61
2023-02-28T06:43:42.842Z,69.09
2023-02-28T06:44:42.833Z,68.74
2023-02-28T06:45:42.834Z,68.01
2023-02-28T06:46:42.875Z,67.80
2023-02-28T06:47:42.812Z,68.04
2023-02-28T06:48:42.788Z,67.38
2023-02-28T06:49:42.948Z,67.49
2023-02-28T06:50:42.775Z,67.31
2023-02-28T06:51:42.767Z,67.59
2023-02-28T06:52:42.796Z,66.86
2023-02-28T06:53:42.762Z,67.07
2023-02-28T06:54:42.727Z,67.07
2023-02-28T06:55:42.742Z,67.25
2023-02-28T06:56:42.720Z,66.83
2023-02-28T06:57:42.728Z,66.10
2023-02-28T06:58:42.682Z,65.75
2023-02-28T06:59:43.030Z,66.80
2023-02-28T07:00:42.760Z,66.69
2023-02-28T07:01:42.730Z,66.07
2023-02-28T07:02:42.718Z,65.97
2023-02-28T07:03:42.686Z,65.52
2023-02-28T07:04:43.021Z,65.94
2023-02-28T07:05:42.686Z,65.13
2023-02-28T07:06:42.701Z,65.86
2023-02-28T07:07:42.669Z,65.41
2023-02-28T07:08:42.625Z,65.41
2023-02-28T07:09:42.627Z,65.28
2023-02-28T07:10:42.592Z,64.89
2023-02-28T07:11:42.559Z,65.31
2023-02-28T07:12:42.635Z,65.31
2023-02-28T07:13:42.644Z,65.20
2023-02-28T07:14:42.527Z,64.69
2023-02-28T07:15:44.262Z,65.20
2023-02-28T07:16:43.502Z,65.10
2023-02-28T07:17:42.501Z,65.10
2023-02-28T07:18:42.608Z,65.17
2023-02-28T07:19:42.470Z,65.07
2023-02-28T07:20:42.487Z,65.56
2023-02-28T07:21:42.454Z,64.62
2023-02-28T07:22:42.470Z,64.11
2023-02-28T07:23:42.425Z,64.42
2023-02-28T07:24:42.428Z,63.58
2023-02-28T07:25:42.409Z,63.48
2023-02-28T07:26:42.421Z,64.42
2023-02-28T07:27:42.388Z,65.04
2023-02-28T07:28:43.398Z,64.21
2023-02-28T07:29:42.358Z,63.68
2023-02-28T07:30:42.360Z,63.55
2023-02-28T07:31:42.403Z,64.70
2023-02-28T07:32:44.750Z,64.62
2023-02-28T07:33:43.374Z,63.76
2023-02-28T07:34:42.865Z,63.34
2023-02-28T07:35:42.324Z,63.45
2023-02-28T07:36:42.302Z,63.87
2023-02-28T07:37:42.292Z,63.87
2023-02-28T07:38:42.335Z,64.59
2023-02-28T07:39:42.273Z,63.58
2023-02-28T07:40:42.529Z,63.37
2023-02-28T07:41:42.251Z,63.76
2023-02-28T07:42:42.241Z,63.76
2023-02-28T07:43:42.270Z,64.49
2023-02-28T07:44:42.224Z,63.65
2023-02-28T07:45:42.212Z,64.15
2023-02-28T07:46:42.242Z,62.79
2023-02-28T07:47:42.195Z,63.45
2023-02-28T07:48:42.192Z,63.32
2023-02-28T07:49:42.161Z,62.48
2023-02-28T07:50:43.176Z,63.34
2023-02-28T07:51:42.146Z,62.82
2023-02-28T07:52:42.155Z,63.13
2023-02-28T07:53:42.174Z,63.53
2023-02-28T07:54:42.130Z,63.63
2023-02-28T07:55:42.109Z,63.63
2023-02-28T07:56:42.105Z,63.63
2023-02-28T07:57:42.108Z,63.21
2023-02-28T07:58:42.078Z,60.92
2023-02-28T07:59:42.059Z,62.48
2023-02-28T08:00:42.100Z,61.62
2023-02-28T08:01:42.052Z,61.41
2023-02-28T08:02:42.130Z,61.31
2023-02-28T08:03:42.053Z,62.22
2023-02-28T08:04:42.023Z,60.78
2023-02-28T08:05:41.985Z,60.37
2023-02-28T08:06:41.980Z,60.16
2023-02-28T08:07:41.981Z,60.47
2023-02-28T08:08:41.984Z,61.52
2023-02-28T08:09:41.956Z,61.38
2023-02-28T08:10:41.924Z,60.86
2023-02-28T08:11:41.953Z,58.91
2023-02-28T08:12:41.916Z,60.47
2023-02-28T08:13:41.940Z,60.76
2023-02-28T08:14:41.909Z,60.76
2023-02-28T08:15:41.900Z,60.03
2023-02-28T08:16:41.878Z,60.21
2023-02-28T08:17:41.898Z,58.65
2023-02-28T08:18:41.919Z,60.00
2023-02-28T08:19:41.872Z,57.40
2023-02-28T08:20:41.878Z,57.82
2023-02-28T08:21:41.863Z,58.23
2023-02-28T08:22:43.662Z,58.13
2023-02-28T08:23:41.829Z,58.16
2023-02-28T08:24:41.803Z,58.76
2023-02-28T08:25:41.834Z,58.97
2023-02-28T08:26:41.782Z,58.03
2023-02-28T08:27:41.819Z,57.51
2023-02-28T08:28:41.773Z,57.92
2023-02-28T08:29:41.767Z,58.21
2023-02-28T08:30:41.737Z,57.28
2023-02-28T08:31:41.750Z,57.07
2023-02-28T08:32:41.826Z,57.69
2023-02-28T08:33:41.728Z,56.96
2023-02-28T08:34:41.700Z,56.47
2023-02-28T08:35:41.773Z,56.88
2023-02-28T08:36:41.791Z,56.68
2023-02-28T08:37:41.705Z,56.05
2023-02-28T08:38:41.685Z,56.37
2023-02-28T08:39:41.693Z,56.99
2023-02-28T08:40:41.688Z,56.57
2023-02-28T08:41:41.659Z,57.43
2023-02-28T08:42:41.630Z,57.53
2023-02-28T08:43:41.684Z,57.95
2023-02-28T08:44:41.662Z,58.03
2023-02-28T08:45:41.666Z,58.03
2023-02-28T08:46:41.606Z,58.73
2023-02-28T08:47:41.580Z,58.08
2023-02-28T08:48:41.606Z,57.35
2023-02-28T08:49:41.573Z,57.09
2023-02-28T08:50:42.107Z,56.78
2023-02-28T08:51:41.533Z,56.47
2023-02-28T08:52:41.550Z,54.52
2023-02-28T08:53:41.544Z,54.44
2023-02-28T08:54:41.516Z,55.17
2023-02-28T08:55:41.503Z,54.96
2023-02-28T08:56:41.474Z,56.70
2023-02-28T08:57:41.503Z,55.07
2023-02-28T08:58:41.487Z,53.92
2023-02-28T08:59:41.474Z,55.79
2023-02-28T09:00:41.901Z,55.69
2023-02-28T09:01:41.407Z,54.55
2023-02-28T09:02:41.419Z,56.81
2023-02-28T09:03:41.467Z,56.26
2023-02-28T09:04:41.397Z,55.41
2023-02-28T09:05:41.398Z,55.62
2023-02-28T09:06:41.360Z,54.75
2023-02-28T09:07:41.360Z,52.92
2023-02-28T09:08:41.352Z,53.64
2023-02-28T09:09:41.316Z,54.19
2023-02-28T09:10:41.355Z,55.51
2023-02-28T09:11:41.285Z,53.85
2023-02-28T09:12:41.336Z,56.18
2023-02-28T09:13:41.323Z,54.83
2023-02-28T09:14:41.298Z,54.00
2023-02-28T09:15:41.286Z,52.74
2023-02-28T09:16:41.309Z,52.82
2023-02-28T09:17:41.258Z,55.20
2023-02-28T09:18:41.239Z,54.06
2023-02-28T09:19:41.264Z,52.95
2023-02-28T09:20:41.459Z,54.27
2023-02-28T09:21:41.248Z,56.16
2023-02-28T09:22:41.209Z,57.12
2023-02-28T09:23:41.201Z,57.32
2023-02-28T09:25:42.198Z,50.12
2023-02-28T09:26:43.453Z,50.07
2023-02-28T09:27:43.189Z,51.28
2023-02-28T09:28:42.150Z,52.83
2023-02-28T09:29:41.175Z,55.15
2023-02-28T09:30:41.181Z,54.94
2023-02-28T09:31:41.161Z,53.77
2023-02-28T09:32:41.102Z,56.29
2023-02-28T09:33:41.146Z,52.97
2023-02-28T09:34:41.207Z,53.41
2023-02-28T09:35:41.086Z,52.79
2023-02-28T09:36:45.885Z,52.19
2023-02-28T09:37:43.082Z,52.29
2023-02-28T09:38:41.026Z,53.00
2023-02-28T09:39:41.038Z,53.00
2023-02-28T09:40:41.021Z,52.92
2023-02-28T09:41:41.012Z,54.24
2023-02-28T09:42:41.002Z,52.19
2023-02-28T09:43:40.974Z,52.61
2023-02-28T09:44:41.956Z,53.23
2023-02-28T09:45:41.049Z,53.36
2023-02-28T09:46:40.990Z,54.60
2023-02-28T09:47:40.995Z,52.01
2023-02-28T09:48:41.331Z,51.65
2023-02-28T09:49:41.940Z,51.23
2023-02-28T09:50:40.921Z,52.62
2023-02-28T09:51:40.910Z,53.25
2023-02-28T09:52:40.922Z,55.02
2023-02-28T09:53:41.060Z,56.57
2023-02-28T09:54:40.954Z,53.46
2023-02-28T09:55:46.616Z,53.15
2023-02-28T09:56:42.861Z,53.25
2023-02-28T09:57:40.828Z,53.56
2023-02-28T09:58:40.824Z,53.59
2023-02-28T09:59:40.817Z,52.34
2023-02-28T10:00:40.775Z,51.40
2023-02-28T10:01:40.812Z,51.72
2023-02-28T10:02:40.803Z,53.04
2023-02-28T10:03:40.857Z,52.62
2023-02-28T10:04:40.905Z,53.04
2023-02-28T10:05:42.766Z,54.08
2023-02-28T10:06:40.756Z,53.15
2023-02-28T10:07:40.836Z,53.77
2023-02-28T10:08:40.830Z,53.75
2023-02-28T10:09:40.823Z,51.67
2023-02-28T10:10:40.724Z,50.55
2023-02-28T10:11:40.722Z,51.28
2023-02-28T10:12:40.676Z,51.28
2023-02-28T10:13:40.693Z,51.44
2023-02-28T10:14:40.697Z,50.90
2023-02-28T10:15:40.747Z,50.89
2023-02-28T10:16:40.656Z,48.61
2023-02-28T10:17:54.776Z,45.07
2023-02-28T10:18:41.630Z,44.04
2023-02-28T10:19:40.703Z,43.98
2023-02-28T10:20:41.623Z,43.12
2023-02-28T10:21:40.616Z,42.82
2023-02-28T10:22:40.687Z,43.57
2023-02-28T10:23:40.674Z,45.29
2023-02-28T10:24:40.592Z,44.82
2023-02-28T10:25:40.548Z,43.63
2023-02-28T10:26:40.567Z,40.79
2023-02-28T10:27:40.579Z,40.48
2023-02-28T10:28:40.524Z,40.55
2023-02-28T10:29:40.539Z,40.51
2023-02-28T10:30:40.521Z,41.53
2023-02-28T10:31:40.561Z,40.82
2023-02-28T10:32:40.501Z,41.66
2023-02-28T10:33:40.481Z,40.33
2023-02-28T10:34:40.472Z,41.93
2023-02-28T10:35:40.509Z,41.93
2023-02-28T10:36:40.440Z,41.95
2023-02-28T10:37:40.438Z,40.75
2023-02-28T10:38:40.446Z,42.04
2023-02-28T10:39:40.403Z,44.84
2023-02-28T10:40:40.435Z,46.75
2023-02-28T10:41:40.416Z,49.11
2023-02-28T10:42:40.416Z,43.85
2023-02-28T10:43:40.343Z,44.68
2023-02-28T10:44:40.338Z,41.47
2023-02-28T10:45:40.334Z,41.29
2023-02-28T10:46:40.355Z,39.21
2023-02-28T10:47:40.314Z,37.96
2023-02-28T10:48:40.294Z,40.28
2023-02-28T10:49:40.279Z,39.49
2023-02-28T10:50:40.277Z,39.44
2023-02-28T10:51:40.276Z,36.49
2023-02-28T10:52:40.248Z,37.60
2023-02-28T10:53:57.708Z,35.99
2023-02-28T10:54:42.237Z,37.81
2023-02-28T10:55:41.892Z,36.97
2023-02-28T10:56:40.356Z,37.57
2023-02-28T10:57:40.242Z,36.94
2023-02-28T10:58:40.210Z,36.27
2023-02-28T10:59:40.210Z,36.65
2023-02-28T11:00:41.547Z,37.86
2023-02-28T11:01:40.253Z,39.07
2023-02-28T11:02:40.219Z,38.21
2023-02-28T11:03:40.161Z,37.77
2023-02-28T11:04:41.340Z,35.51
2023-02-28T11:05:40.196Z,38.29
2023-02-28T11:06:40.166Z,34.00
2023-02-28T11:07:52.966Z,33.91
2023-02-28T11:08:42.114Z,33.78
2023-02-28T11:09:40.096Z,35.29
2023-02-28T11:10:40.137Z,35.07
2023-02-28T11:11:40.107Z,33.65
2023-02-28T11:12:47.277Z,34.35
2023-02-28T11:13:42.075Z,33.96
2023-02-28T11:14:40.079Z,33.83
2023-02-28T11:15:40.170Z,33.61
2023-02-28T11:16:40.120Z,34.99
2023-02-28T11:17:40.095Z,32.57
2023-02-28T11:18:40.064Z,33.32
2023-02-28T11:19:40.047Z,33.81
2023-02-28T11:20:40.040Z,34.32
2023-02-28T11:21:40.001Z,31.89
2023-02-28T11:22:40.038Z,32.68
2023-02-28T11:23:40.020Z,34.20
2023-02-28T11:24:39.990Z,35.13
2023-02-28T11:25:39.998Z,35.35
2023-02-28T11:26:39.971Z,37.59
2023-02-28T11:27:39.964Z,38.29
2023-02-28T11:28:39.936Z,40.48
2023-02-28T11:29:39.923Z,40.89
2023-02-28T11:30:39.972Z,40.68
2023-02-28T11:31:39.945Z,37.55
2023-02-28T11:32:39.982Z,39.12
2023-02-28T11:33:39.864Z,35.39
2023-02-28T11:34:39.884Z,34.53
2023-02-28T11:35:39.875Z,34.53
2023-02-28T11:36:39.859Z,34.45
2023-02-28T11:37:39.849Z,34.45
2023-02-28T11:38:39.830Z,33.71
2023-02-28T11:39:39.822Z,32.46
2023-02-28T11:40:39.830Z,33.88
2023-02-28T11:41:41.400Z,32.54
2023-02-28T11:42:40.803Z,33.11
2023-02-28T11:43:39.779Z,33.23
2023-02-28T11:44:39.790Z,32.75
2023-02-28T11:45:39.750Z,33.65
2023-02-28T11:46:40.781Z,32.80
2023-02-28T11:47:39.740Z,31.57
2023-02-28T11:48:39.741Z,30.54
2023-02-28T11:49:39.729Z,31.22
2023-02-28T11:50:39.745Z,31.92
2023-02-28T11:51:39.719Z,32.60
2023-02-28T11:52:39.690Z,34.95
2023-02-28T11:53:39.693Z,33.48
2023-02-28T11:54:39.692Z,34.78
2023-02-28T11:55:39.710Z,34.41
2023-02-28T11:56:39.690Z,34.66
2023-02-28T11:57:39.613Z,31.59
2023-02-28T11:58:39.648Z,31.98
2023-02-28T11:59:39.659Z,31.48
2023-02-28T12:00:39.610Z,33.50
2023-02-28T12:01:39.612Z,31.40
2023-02-28T12:02:39.673Z,31.87
2023-02-28T12:03:39.662Z,32.83
2023-02-28T12:04:39.605Z,32.65
2023-02-28T12:05:39.601Z,31.83
2023-02-28T12:06:39.544Z,33.66
2023-02-28T12:07:39.563Z,33.66
2023-02-28T12:08:39.535Z,32.68
2023-02-28T12:09:39.548Z,32.97
2023-02-28T12:10:40.176Z,33.69
2023-02-28T12:11:39.545Z,34.22
2023-02-28T12:12:39.522Z,34.58
2023-02-28T12:13:39.497Z,33.34
2023-02-28T12:14:39.491Z,33.04
2023-02-28T12:15:39.494Z,31.29
2023-02-28T12:16:39.513Z,30.45
2023-02-28T12:17:39.473Z,32.12
2023-02-28T12:18:39.473Z,31.71
2023-02-28T12:19:39.461Z,31.18
2023-02-28T12:20:39.438Z,30.64
2023-02-28T12:21:39.460Z,30.44
2023-02-28T12:22:39.436Z,31.25
2023-02-28T12:23:39.389Z,30.19
2023-02-28T12:24:39.394Z,29.21
2023-02-28T12:25:39.398Z,32.79
2023-02-28T12:26:39.390Z,32.41
2023-02-28T12:27:39.383Z,32.31
2023-02-28T12:28:39.405Z,33.65
2023-02-28T12:29:39.313Z,29.79
2023-02-28T12:30:39.331Z,29.86
2023-02-28T12:31:39.431Z,29.41
2023-02-28T12:32:39.380Z,27.10
2023-02-28T12:33:39.296Z,28.81
2023-02-28T12:34:39.271Z,29.49
2023-02-28T12:35:40.267Z,28.01
2023-02-28T12:36:39.244Z,29.49
2023-02-28T12:37:39.216Z,29.05
2023-02-28T12:38:39.187Z,30.19
2023-02-28T12:39:50.459Z,30.99
2023-02-28T12:40:40.154Z,30.86
2023-02-28T12:41:39.195Z,30.25
2023-02-28T12:43:47.291Z,31.25
2023-02-28T12:44:26.499Z,30.28
2023-02-28T12:45:13.948Z,31.79
2023-02-28T12:46:09.489Z,30.90
2023-02-28T12:46:41.096Z,29.08
2023-02-28T12:47:39.114Z,29.85
2023-02-28T12:48:39.214Z,29.79
2023-02-28T12:49:45.455Z,31.95
2023-02-28T12:51:40.133Z,32.01
2023-02-28T12:52:39.127Z,31.50
2023-02-28T12:53:39.078Z,32.80
2023-02-28T12:54:39.085Z,30.89
2023-02-28T12:55:39.113Z,33.26
2023-02-28T12:56:39.038Z,33.04
2023-02-28T12:57:39.018Z,31.47
2023-02-28T12:58:39.049Z,33.48
2023-02-28T12:59:39.001Z,29.83
2023-02-28T13:00:38.990Z,30.86
2023-02-28T13:01:39.111Z,31.67